METAR Data
IDs: Format: Raw Decoded Include TAF

Data at: 0751 UTC 01 Aug 2021

ETIK 010745Z AUTO 26004KT 9999 -DZ SCT070 BKN130 15/13 A2985 RMK AO2 DZE0657DZB08E32DZB37E41DZB45 SLP105 $